createdAt,value
2023-05-05T00:01:02.168Z,7.13
2023-05-05T00:03:29.626Z,5.88
2023-05-05T00:05:56.739Z,6.65
2023-05-05T00:08:23.798Z,4.53
2023-05-05T00:10:52.901Z,4.97
2023-05-05T00:13:20.866Z,5.60
2023-05-05T00:15:49.824Z,4.05
2023-05-05T00:18:17.930Z,4.25
2023-05-05T00:20:48.930Z,5.38
2023-05-05T00:23:17.204Z,7.38
2023-05-05T00:25:44.093Z,6.45
2023-05-05T00:28:11.132Z,5.28
2023-05-05T00:30:40.159Z,4.57
2023-05-05T00:33:07.054Z,6.57
2023-05-05T00:35:34.178Z,5.65
2023-05-05T00:38:00.894Z,5.90
2023-05-05T00:40:28.480Z,5.47
2023-05-05T00:42:55.256Z,5.93
2023-05-05T00:45:22.247Z,4.80
2023-05-05T00:47:54.513Z,6.07
2023-05-05T00:50:27.295Z,7.45
2023-05-05T00:53:04.517Z,6.63
2023-05-05T00:55:31.961Z,5.53
2023-05-05T00:58:05.470Z,7.72
2023-05-05T01:00:32.989Z,5.43
2023-05-05T01:02:59.833Z,4.82
2023-05-05T01:05:38.567Z,5.72
2023-05-05T01:08:27.944Z,5.22
2023-05-05T01:11:14.621Z,6.22
2023-05-05T01:13:58.131Z,5.28
2023-05-05T01:16:31.035Z,5.88
2023-05-05T01:19:51.015Z,6.20
2023-05-05T01:22:23.199Z,5.72
2023-05-05T01:25:22.986Z,6.43
2023-05-05T01:28:17.157Z,5.15
2023-05-05T01:31:24.237Z,5.47
2023-05-05T01:34:01.660Z,5.85
2023-05-05T01:36:40.401Z,5.20
2023-05-05T01:39:09.215Z,5.28
2023-05-05T01:41:47.296Z,5.25
2023-05-05T01:44:16.733Z,4.30
2023-05-05T01:46:47.986Z,6.68
2023-05-05T01:49:15.465Z,5.70
2023-05-05T01:51:42.532Z,6.13
2023-05-05T01:54:09.792Z,8.02
2023-05-05T01:56:40.406Z,5.65
2023-05-05T01:59:08.097Z,7.93
2023-05-05T02:05:42.318Z,6.28
2023-05-05T02:08:10.123Z,7.22
2023-05-05T02:10:40.818Z,6.93
2023-05-05T02:13:08.313Z,7.53
2023-05-05T02:15:38.772Z,5.35
2023-05-05T02:18:07.342Z,5.30
2023-05-05T02:20:34.426Z,6.03
2023-05-05T02:23:01.288Z,6.63
2023-05-05T02:25:35.986Z,5.47
2023-05-05T02:28:03.634Z,6.13
2023-05-05T02:30:32.420Z,6.28
2023-05-05T02:33:08.406Z,8.30
2023-05-05T02:35:39.129Z,9.73
2023-05-05T02:38:14.684Z,6.10
2023-05-05T02:40:42.756Z,9.68
2023-05-05T02:43:13.843Z,6.35
2023-05-05T02:45:41.043Z,7.60
2023-05-05T02:48:07.770Z,6.38
2023-05-05T02:50:38.788Z,6.50
2023-05-05T02:53:26.029Z,7.18
2023-05-05T02:56:34.839Z,8.73
2023-05-05T02:59:15.339Z,5.20
2023-05-05T03:02:08.966Z,6.70
2023-05-05T03:04:43.054Z,5.35
2023-05-05T03:07:15.261Z,6.05
2023-05-05T03:10:03.170Z,5.60
2023-05-05T03:12:51.445Z,6.70
2023-05-05T03:15:30.677Z,7.82
2023-05-05T03:17:59.635Z,8.68
2023-05-05T03:20:27.573Z,7.45
2023-05-05T03:22:56.232Z,7.38
2023-05-05T03:25:23.064Z,6.07
2023-05-05T03:27:50.040Z,9.23
2023-05-05T03:30:20.198Z,7.78
2023-05-05T03:32:49.895Z,5.53
2023-05-05T03:35:17.256Z,5.97
2023-05-05T03:37:44.087Z,7.28
2023-05-05T03:40:13.228Z,8.40
2023-05-05T03:42:41.122Z,6.10
2023-05-05T03:45:08.449Z,6.18
2023-05-05T03:47:35.717Z,7.45
2023-05-05T03:50:02.711Z,7.35
2023-05-05T03:52:30.239Z,6.20
2023-05-05T03:54:57.839Z,6.15
2023-05-05T03:57:24.700Z,7.20
2023-05-05T03:59:51.379Z,8.60
2023-05-05T04:02:18.917Z,6.68
2023-05-05T04:04:46.763Z,7.07
2023-05-05T04:07:13.703Z,6.00
2023-05-05T04:09:44.448Z,8.63
2023-05-05T04:12:12.384Z,14.27
2023-05-05T04:14:39.714Z,9.07
2023-05-05T04:17:06.491Z,5.72
2023-05-05T04:19:34.184Z,7.45
2023-05-05T04:22:02.886Z,6.72
2023-05-05T04:24:30.499Z,7.63
2023-05-05T04:26:57.344Z,7.75
2023-05-05T04:29:25.047Z,7.53
2023-05-05T04:31:52.318Z,9.65
2023-05-05T04:34:19.326Z,8.02
2023-05-05T04:36:46.617Z,8.98
2023-05-05T04:39:13.980Z,9.18
2023-05-05T04:41:40.935Z,7.70
2023-05-05T04:44:08.856Z,9.98
2023-05-05T04:46:36.205Z,8.73
2023-05-05T04:49:05.109Z,12.18
2023-05-05T04:51:32.612Z,9.32
2023-05-05T04:53:59.436Z,8.40
2023-05-05T04:56:26.396Z,9.35
2023-05-05T04:58:54.283Z,9.98
2023-05-05T05:01:21.038Z,7.88
2023-05-05T05:03:47.834Z,9.32
2023-05-05T05:06:14.665Z,9.10
2023-05-05T05:08:41.393Z,8.50
2023-05-05T05:11:08.838Z,8.75
2023-05-05T05:13:35.640Z,8.60
2023-05-05T05:16:02.481Z,7.13
2023-05-05T05:18:29.413Z,5.78
2023-05-05T05:20:56.599Z,6.57
2023-05-05T05:23:23.633Z,7.75
2023-05-05T05:25:51.151Z,7.00
2023-05-05T05:28:20.292Z,7.35
2023-05-05T05:30:54.511Z,6.50
2023-05-05T05:33:21.535Z,16.33
2023-05-05T05:35:49.110Z,12.05
2023-05-05T05:38:17.948Z,8.48
2023-05-05T05:40:45.659Z,5.75
2023-05-05T05:43:12.851Z,8.45
2023-05-05T05:45:39.598Z,9.18
2023-05-05T05:48:07.580Z,9.77
2023-05-05T05:50:35.870Z,9.27
2023-05-05T05:53:02.874Z,15.95
2023-05-05T05:55:30.321Z,11.23
2023-05-05T05:57:57.087Z,8.85
2023-05-05T06:00:24.243Z,11.55
2023-05-05T06:02:58.083Z,9.85
2023-05-05T06:05:29.074Z,17.70
2023-05-05T06:07:55.960Z,10.23
2023-05-05T06:10:28.348Z,17.85
2023-05-05T06:13:03.059Z,16.98
2023-05-05T06:15:31.726Z,13.48
2023-05-05T06:18:00.215Z,17.85
2023-05-05T06:20:27.516Z,13.75
2023-05-05T06:22:54.684Z,16.60
2023-05-05T06:25:22.012Z,15.52
2023-05-05T06:27:49.817Z,14.63
2023-05-05T06:30:16.693Z,18.77
2023-05-05T06:32:43.531Z,14.70
2023-05-05T06:35:10.300Z,12.00
2023-05-05T06:37:37.092Z,10.10
2023-05-05T06:40:04.501Z,14.02
2023-05-05T06:42:32.152Z,16.45
2023-05-05T06:44:59.767Z,15.07
2023-05-05T06:47:26.554Z,12.35
2023-05-05T06:49:53.747Z,10.85
2023-05-05T06:52:20.500Z,11.25
2023-05-05T06:54:47.274Z,12.20
2023-05-05T06:57:14.006Z,13.02
2023-05-05T06:59:40.938Z,11.27
2023-05-05T07:02:07.645Z,10.65
2023-05-05T07:04:34.671Z,12.52
2023-05-05T07:07:01.556Z,14.43
2023-05-05T07:09:28.288Z,13.23
2023-05-05T07:11:55.024Z,12.05
2023-05-05T07:14:24.232Z,11.85
2023-05-05T07:16:51.511Z,11.20
2023-05-05T07:19:18.399Z,11.82
2023-05-05T07:21:45.135Z,14.85
2023-05-05T07:24:11.925Z,10.80
2023-05-05T07:26:38.736Z,9.95
2023-05-05T07:29:05.671Z,10.68
2023-05-05T07:31:32.581Z,10.52
2023-05-05T07:33:59.451Z,10.48
2023-05-05T07:36:27.896Z,13.07
2023-05-05T07:38:54.844Z,9.68
2023-05-05T07:41:21.664Z,10.57
2023-05-05T07:43:48.502Z,10.63
2023-05-05T07:46:15.469Z,14.60
2023-05-05T07:48:42.225Z,12.07
2023-05-05T07:51:09.656Z,11.73
2023-05-05T07:53:37.068Z,13.60
2023-05-05T07:56:04.013Z,11.05
2023-05-05T07:58:30.885Z,12.27
2023-05-05T08:00:57.723Z,11.75
2023-05-05T08:03:25.073Z,9.98
2023-05-05T08:05:55.451Z,12.48
2023-05-05T08:08:26.823Z,10.18
2023-05-05T08:10:53.541Z,9.20
2023-05-05T08:13:20.298Z,12.20
2023-05-05T08:15:47.269Z,9.82
2023-05-05T08:18:14.671Z,10.88
2023-05-05T08:20:41.534Z,10.45
2023-05-05T08:23:08.230Z,10.23
2023-05-05T08:25:34.901Z,8.30
2023-05-05T08:28:02.574Z,8.27
2023-05-05T08:30:29.567Z,8.20
2023-05-05T08:32:56.467Z,9.77
2023-05-05T08:35:26.183Z,10.30
2023-05-05T08:37:52.944Z,9.23
2023-05-05T08:40:21.193Z,8.77
2023-05-05T08:42:48.118Z,7.97
2023-05-05T08:45:15.894Z,6.47
2023-05-05T08:47:43.438Z,7.22
2023-05-05T08:50:11.411Z,7.07
2023-05-05T08:52:41.770Z,9.32
2023-05-05T08:55:17.289Z,8.80
2023-05-05T08:57:56.982Z,8.25
2023-05-05T09:00:26.480Z,7.35
2023-05-05T09:02:58.403Z,5.63
2023-05-05T09:05:26.765Z,5.82
2023-05-05T09:07:53.552Z,4.97
2023-05-05T09:10:20.607Z,6.15
2023-05-05T09:12:49.475Z,5.68
2023-05-05T09:15:16.365Z,6.47
2023-05-05T09:17:43.885Z,7.68
2023-05-05T09:20:12.927Z,6.47
2023-05-05T09:22:48.732Z,8.65
2023-05-05T09:25:17.740Z,6.35
2023-05-05T09:27:49.221Z,5.28
2023-05-05T09:30:24.834Z,4.55
2023-05-05T09:32:55.457Z,6.57
2023-05-05T09:35:23.313Z,6.22
2023-05-05T09:37:50.184Z,6.10
2023-05-05T09:40:21.285Z,5.40
2023-05-05T09:42:48.072Z,4.38
2023-05-05T09:45:17.776Z,4.40
2023-05-05T09:47:48.614Z,5.97
2023-05-05T09:50:18.648Z,4.70
2023-05-05T09:53:03.489Z,5.53
2023-05-05T09:55:33.621Z,4.63
2023-05-05T09:58:23.884Z,4.13
2023-05-05T10:00:51.280Z,5.82
2023-05-05T10:03:18.482Z,4.90
2023-05-05T10:05:55.835Z,5.95
2023-05-05T10:08:34.225Z,3.78
2023-05-05T10:11:06.390Z,5.75
2023-05-05T10:13:38.124Z,5.22
2023-05-05T10:16:05.661Z,5.05
2023-05-05T10:18:32.730Z,3.78
2023-05-05T10:21:03.216Z,3.80
2023-05-05T10:23:50.251Z,3.58
2023-05-05T10:26:17.340Z,4.22
2023-05-05T10:28:57.227Z,6.63
2023-05-05T10:31:47.161Z,5.32
2023-05-05T10:34:51.274Z,4.65
2023-05-05T10:37:18.945Z,5.05
2023-05-05T10:39:45.838Z,6.47
2023-05-05T10:42:13.679Z,4.32
2023-05-05T10:44:40.413Z,3.55
2023-05-05T10:47:07.569Z,3.45
2023-05-05T10:50:11.224Z,6.18
2023-05-05T10:52:56.744Z,5.63
2023-05-05T10:55:47.767Z,4.28
2023-05-05T10:58:46.937Z,7.35
2023-05-05T11:01:33.360Z,4.38
2023-05-05T11:04:20.482Z,5.35
2023-05-05T11:07:10.442Z,4.13
2023-05-05T11:09:56.712Z,4.28
2023-05-05T11:12:23.633Z,4.07
2023-05-05T11:15:24.301Z,3.70
2023-05-05T11:17:51.286Z,3.53
2023-05-05T11:20:18.380Z,4.20
2023-05-05T11:23:03.251Z,3.70
2023-05-05T11:25:36.470Z,4.93
2023-05-05T11:28:16.936Z,3.47
2023-05-05T11:30:56.909Z,5.68
2023-05-05T11:33:38.622Z,9.40
2023-05-05T11:36:08.932Z,6.90
2023-05-05T11:39:06.352Z,7.57
2023-05-05T11:41:33.145Z,4.65
2023-05-05T11:44:16.454Z,8.63
2023-05-05T11:46:52.460Z,6.18
2023-05-05T11:49:36.741Z,5.07
2023-05-05T11:52:12.603Z,4.60
2023-05-05T11:54:41.402Z,4.05
2023-05-05T11:57:08.996Z,5.00
2023-05-05T11:59:59.050Z,4.03
2023-05-05T12:02:27.908Z,3.55
2023-05-05T12:04:55.368Z,3.53
2023-05-05T12:07:26.573Z,4.10
2023-05-05T12:09:54.112Z,2.53
2023-05-05T12:12:21.666Z,5.43
2023-05-05T12:14:53.069Z,3.40
2023-05-05T12:17:23.600Z,4.93
2023-05-05T12:19:52.191Z,5.10
2023-05-05T12:22:26.968Z,2.83
2023-05-05T12:25:02.472Z,4.45
2023-05-05T12:27:29.716Z,6.10
2023-05-05T12:29:58.179Z,3.55
2023-05-05T12:32:30.010Z,6.07
2023-05-05T12:34:57.559Z,11.82
2023-05-05T12:37:27.466Z,7.85
2023-05-05T12:39:54.989Z,6.15
2023-05-05T12:42:22.649Z,8.30
2023-05-05T12:44:49.571Z,5.55
2023-05-05T12:47:31.499Z,7.80
2023-05-05T12:50:00.291Z,3.67
2023-05-05T12:52:44.338Z,5.55
2023-05-05T12:55:12.032Z,5.63
2023-05-05T12:57:39.417Z,5.78
2023-05-05T13:00:17.934Z,6.65
2023-05-05T13:02:44.791Z,6.63
2023-05-05T13:05:11.860Z,3.40
2023-05-05T13:07:51.628Z,2.78
2023-05-05T13:10:18.820Z,4.43
2023-05-05T13:12:45.668Z,3.50
2023-05-05T13:15:12.691Z,2.75
2023-05-05T13:17:40.018Z,3.35
2023-05-05T13:20:09.961Z,3.13
2023-05-05T13:22:37.260Z,2.67
2023-05-05T13:25:04.128Z,2.35
2023-05-05T13:27:30.859Z,4.28
2023-05-05T13:29:57.602Z,3.90
2023-05-05T13:32:24.432Z,3.00
2023-05-05T13:34:51.253Z,7.25
2023-05-05T13:37:17.970Z,2.05
2023-05-05T13:39:44.794Z,3.75
2023-05-05T13:42:11.560Z,1.85
2023-05-05T13:44:38.362Z,2.85
2023-05-05T13:47:05.594Z,4.75
2023-05-05T13:49:32.352Z,3.20
2023-05-05T13:51:59.303Z,4.00
2023-05-05T13:54:26.083Z,1.30
2023-05-05T13:56:52.778Z,2.70
2023-05-05T13:59:19.474Z,2.42
2023-05-05T14:01:46.233Z,2.85
2023-05-05T14:04:12.987Z,2.22
2023-05-05T14:06:40.004Z,3.63
2023-05-05T14:09:07.817Z,2.50
2023-05-05T14:11:34.653Z,3.05
2023-05-05T14:14:01.613Z,2.75
2023-05-05T14:16:28.353Z,4.72
2023-05-05T14:18:55.279Z,3.35
2023-05-05T14:21:22.061Z,2.72
2023-05-05T14:23:48.886Z,2.20
2023-05-05T14:26:15.690Z,2.00
2023-05-05T14:28:43.416Z,3.08
2023-05-05T14:31:11.113Z,2.60
2023-05-05T14:33:37.945Z,1.88
2023-05-05T14:36:05.074Z,2.47
2023-05-05T14:38:31.867Z,3.60
2023-05-05T14:40:58.911Z,4.38
2023-05-05T14:43:25.629Z,6.20
2023-05-05T14:45:53.008Z,2.95
2023-05-05T14:48:22.114Z,2.28
2023-05-05T14:50:49.769Z,2.20
2023-05-05T14:53:16.924Z,1.88
2023-05-05T14:55:44.434Z,3.33
2023-05-05T14:58:11.253Z,1.75
2023-05-05T15:00:38.071Z,4.88
2023-05-05T15:03:04.965Z,1.77
2023-05-05T15:05:31.909Z,3.20
2023-05-05T15:07:58.626Z,1.65
2023-05-05T15:10:25.389Z,3.03
2023-05-05T15:12:52.190Z,1.73
2023-05-05T15:15:19.049Z,1.85
2023-05-05T15:17:45.907Z,2.55
2023-05-05T15:20:12.697Z,1.63
2023-05-05T15:22:39.467Z,2.55
2023-05-05T15:25:10.825Z,1.73
2023-05-05T15:27:41.890Z,5.45
2023-05-05T15:30:09.159Z,1.92
2023-05-05T15:32:35.913Z,2.20
2023-05-05T15:35:02.689Z,2.35
2023-05-05T15:37:29.534Z,1.98
2023-05-05T15:39:56.929Z,1.65
2023-05-05T15:42:24.461Z,3.47
2023-05-05T15:44:51.672Z,2.17
2023-05-05T15:47:18.412Z,2.10
2023-05-05T15:49:45.166Z,3.47
2023-05-05T15:52:12.772Z,6.38
2023-05-05T15:54:39.603Z,1.95
2023-05-05T15:57:06.411Z,2.45
2023-05-05T15:59:33.131Z,2.78
2023-05-05T16:01:59.967Z,2.05
2023-05-05T16:04:26.768Z,2.22
2023-05-05T16:06:55.412Z,2.47
2023-05-05T16:09:22.239Z,2.55
2023-05-05T16:11:54.511Z,3.40
2023-05-05T16:14:21.335Z,5.53
2023-05-05T16:16:48.110Z,3.63
2023-05-05T16:19:15.005Z,2.33
2023-05-05T16:21:41.684Z,5.57
2023-05-05T16:24:08.428Z,3.20
2023-05-05T16:26:35.901Z,3.50
2023-05-05T16:29:02.641Z,5.70
2023-05-05T16:31:29.426Z,3.85
2023-05-05T16:33:56.260Z,3.42
2023-05-05T16:36:23.055Z,6.60
2023-05-05T16:38:49.784Z,10.48
2023-05-05T16:41:16.501Z,7.38
2023-05-05T16:43:43.194Z,8.65
2023-05-05T16:46:09.944Z,9.55
2023-05-05T16:48:36.657Z,7.70
2023-05-05T16:51:03.630Z,6.40
2023-05-05T16:53:33.266Z,8.82
2023-05-05T16:56:00.409Z,7.75
2023-05-05T16:58:27.543Z,6.43
2023-05-05T17:00:54.615Z,6.65
2023-05-05T17:03:22.345Z,5.38
2023-05-05T17:05:50.419Z,6.88
2023-05-05T17:08:17.418Z,5.70
2023-05-05T17:10:45.418Z,5.45
2023-05-05T17:13:13.908Z,4.07
2023-05-05T17:15:41.421Z,3.35
2023-05-05T17:18:08.385Z,3.63
2023-05-05T17:20:36.257Z,3.75
2023-05-05T17:23:03.309Z,3.50
2023-05-05T17:25:30.142Z,4.95
2023-05-05T17:27:57.419Z,2.97
2023-05-05T17:30:24.284Z,5.65
2023-05-05T17:32:51.179Z,4.72
2023-05-05T17:35:18.319Z,3.67
2023-05-05T17:37:45.088Z,3.40
2023-05-05T17:40:11.961Z,3.22
2023-05-05T17:42:39.041Z,2.95
2023-05-05T17:45:06.566Z,7.25
2023-05-05T17:47:33.637Z,6.22
2023-05-05T17:50:00.690Z,3.72
2023-05-05T17:52:27.533Z,5.32
2023-05-05T17:54:54.274Z,5.85
2023-05-05T17:57:21.278Z,3.67
2023-05-05T17:59:49.628Z,4.38
2023-05-05T18:02:16.870Z,4.97
2023-05-05T18:04:43.787Z,3.60
2023-05-05T18:07:12.184Z,7.55
2023-05-05T18:09:39.112Z,4.53
2023-05-05T18:12:07.526Z,3.92
2023-05-05T18:14:34.304Z,3.60
2023-05-05T18:17:01.259Z,7.45
2023-05-05T18:19:28.004Z,5.60
2023-05-05T18:21:54.838Z,3.92
2023-05-05T18:24:21.647Z,4.65
2023-05-05T18:26:50.533Z,4.15
2023-05-05T18:29:19.004Z,3.65
2023-05-05T18:31:49.332Z,4.25
2023-05-05T18:34:16.809Z,4.88
2023-05-05T18:36:43.629Z,4.03
2023-05-05T18:39:10.471Z,4.95
2023-05-05T18:41:37.420Z,5.38
2023-05-05T18:44:04.226Z,5.43
2023-05-05T18:46:31.204Z,5.05
2023-05-05T18:48:58.004Z,5.97
2023-05-05T18:51:24.749Z,4.28
2023-05-05T18:53:51.514Z,5.53
2023-05-05T18:56:18.320Z,5.80
2023-05-05T18:58:45.103Z,6.40
2023-05-05T19:01:11.835Z,4.47
2023-05-05T19:03:38.721Z,5.43
2023-05-05T19:06:06.801Z,4.63
2023-05-05T19:08:33.606Z,6.60
2023-05-05T19:11:00.396Z,4.65
2023-05-05T19:13:27.291Z,6.05
2023-05-05T19:15:57.022Z,6.70
2023-05-05T19:18:24.412Z,7.55
2023-05-05T19:20:51.221Z,5.68
2023-05-05T19:23:18.027Z,5.43
2023-05-05T19:25:44.863Z,7.05
2023-05-05T19:28:11.976Z,6.72
2023-05-05T19:30:38.806Z,4.97
2023-05-05T19:33:05.817Z,10.15
2023-05-05T19:35:32.704Z,5.80
2023-05-05T19:37:59.866Z,5.95
2023-05-05T19:40:26.591Z,7.50
2023-05-05T19:42:53.379Z,7.90
2023-05-05T19:45:21.040Z,6.38
2023-05-05T19:47:48.068Z,8.70
2023-05-05T19:50:17.647Z,5.32
2023-05-05T19:52:44.417Z,6.30
2023-05-05T19:55:11.332Z,6.53
2023-05-05T19:57:38.983Z,7.95
2023-05-05T20:00:07.910Z,7.07
2023-05-05T20:02:36.930Z,6.63
2023-05-05T20:05:04.513Z,6.63
2023-05-05T20:07:31.274Z,9.10
2023-05-05T20:09:58.682Z,7.32
2023-05-05T20:12:25.544Z,6.78
2023-05-05T20:14:52.484Z,7.82
2023-05-05T20:17:20.507Z,7.88
2023-05-05T20:19:53.132Z,7.53
2023-05-05T20:22:20.675Z,11.13
2023-05-05T20:24:48.168Z,6.05
2023-05-05T20:27:14.925Z,8.43
2023-05-05T20:29:41.634Z,9.68
2023-05-05T20:32:08.446Z,9.85
2023-05-05T20:34:35.604Z,8.52
2023-05-05T20:37:02.413Z,8.75
2023-05-05T20:39:29.211Z,7.88
2023-05-05T20:41:56.043Z,10.98
2023-05-05T20:44:22.752Z,8.43
2023-05-05T20:46:49.769Z,9.88
2023-05-05T20:49:16.673Z,10.38
2023-05-05T20:51:43.422Z,11.75
2023-05-05T20:54:10.220Z,11.27
2023-05-05T20:56:36.983Z,9.85
2023-05-05T20:59:04.536Z,9.73
2023-05-05T21:01:31.496Z,9.15
2023-05-05T21:04:00.300Z,8.80
2023-05-05T21:06:27.030Z,8.20
2023-05-05T21:08:53.733Z,10.02
2023-05-05T21:11:21.417Z,8.07
2023-05-05T21:13:48.214Z,7.00
2023-05-05T21:16:15.066Z,9.13
2023-05-05T21:18:46.547Z,7.95
2023-05-05T21:21:13.336Z,8.10
2023-05-05T21:23:40.087Z,9.02
2023-05-05T21:26:06.881Z,9.25
2023-05-05T21:28:33.635Z,9.95
2023-05-05T21:31:20.673Z,9.35
2023-05-05T21:33:47.338Z,9.35
2023-05-05T21:36:18.942Z,11.05
2023-05-05T21:41:12.746Z,9.00
2023-05-05T21:43:39.436Z,13.65
2023-05-05T21:46:06.489Z,12.10
2023-05-05T21:48:33.259Z,12.40
2023-05-05T21:51:00.055Z,12.80
2023-05-05T21:53:26.800Z,13.18
2023-05-05T21:55:53.628Z,13.77
2023-05-05T21:58:20.425Z,11.30
2023-05-05T22:00:50.682Z,13.25
2023-05-05T22:03:17.730Z,12.93
2023-05-05T22:05:44.619Z,13.90
2023-05-05T22:08:11.327Z,15.07
2023-05-05T22:10:39.171Z,17.88
2023-05-05T22:13:06.052Z,14.00
2023-05-05T22:15:45.354Z,16.52
2023-05-05T22:18:12.502Z,14.55
2023-05-05T22:20:39.253Z,14.90
2023-05-05T22:23:07.198Z,15.98
2023-05-05T22:25:33.965Z,17.20
2023-05-05T22:28:00.773Z,14.65
2023-05-05T22:30:27.493Z,18.65
2023-05-05T22:32:54.956Z,16.35
2023-05-05T22:35:21.810Z,15.73
2023-05-05T22:37:48.565Z,18.90
2023-05-05T22:40:15.324Z,15.43
2023-05-05T22:42:41.980Z,15.88
2023-05-05T22:45:09.656Z,17.08
2023-05-05T22:47:36.666Z,16.83
2023-05-05T22:50:03.628Z,15.50
2023-05-05T22:52:30.573Z,14.65
2023-05-05T22:54:57.340Z,16.08
2023-05-05T22:57:24.474Z,18.50
2023-05-05T22:59:51.532Z,20.98
2023-05-05T23:02:18.272Z,18.33
2023-05-05T23:04:45.298Z,17.23
2023-05-05T23:07:12.878Z,21.90
2023-05-05T23:09:40.678Z,21.05
2023-05-05T23:12:07.488Z,15.02
2023-05-05T23:14:36.077Z,20.08
2023-05-05T23:17:02.876Z,18.83
2023-05-05T23:19:32.360Z,20.50
2023-05-05T23:21:59.984Z,19.02
2023-05-05T23:24:27.778Z,13.20
2023-05-05T23:26:56.133Z,13.50
2023-05-05T23:29:22.915Z,17.73
2023-05-05T23:31:49.646Z,15.98
2023-05-05T23:34:16.469Z,18.23
2023-05-05T23:36:43.490Z,18.20
2023-05-05T23:39:10.223Z,20.40
2023-05-05T23:41:37.000Z,21.83
2023-05-05T23:44:03.758Z,17.77
2023-05-05T23:46:30.631Z,18.75
2023-05-05T23:48:57.336Z,15.50
2023-05-05T23:51:24.328Z,15.38
2023-05-05T23:53:51.298Z,16.00
2023-05-05T23:56:18.171Z,19.10
2023-05-05T23:58:44.881Z,20.80
